Panama City, Florida
Current Conditions -  °F | °C
As of 2:58 AM on Saturday 25 Oct 2014 (Local Time) from KPAM Reporting Station
Clear Clear  
Wind Chill: 57°   Ceiling: Unl
Heat Index: 57°   Visibility: 10mi
Dew Point: 49°   Wind: 8mph
Humidity: 74%   Direction: 10°N
Pressure: 30.02"   Gusts: NA
Location:  30.16°N, 85.66°W
Report Text: KPAM 250758Z AUTO 01007KT 10SM CLR 14/10 A3002 RMK AO2 SLP169 T01410095 $
Loading
Personal Weather Stations






























Interactive Weather Map
Tropical Storm Tracking
New forecast layout! Learn more

10-Day Weather Forecast

Advertisements
Track Severe Weather on mobile